createdAt,value
2018-06-30T00:00:45.555Z,10.43
2018-06-30T00:05:48.206Z,9.83
2018-06-30T00:10:50.833Z,9.53
2018-06-30T00:15:53.455Z,11.57
2018-06-30T00:20:56.078Z,11.67
2018-06-30T00:25:58.824Z,9.87
2018-06-30T00:31:01.499Z,10.47
2018-06-30T00:36:04.539Z,11.73
2018-06-30T00:41:07.318Z,9.40
2018-06-30T00:46:09.934Z,10.37
2018-06-30T00:51:12.562Z,11.20
2018-06-30T00:56:15.211Z,13.93
2018-06-30T01:01:17.811Z,11.43
2018-06-30T01:06:20.473Z,12.70
2018-06-30T01:11:23.203Z,11.17
2018-06-30T01:16:25.826Z,12.53
2018-06-30T01:21:28.434Z,11.03
2018-06-30T01:26:31.034Z,14.10
2018-06-30T01:31:33.999Z,12.70
2018-06-30T01:36:36.651Z,11.03
2018-06-30T01:41:39.907Z,11.40
2018-06-30T01:46:42.534Z,12.87
2018-06-30T01:51:45.126Z,16.87
2018-06-30T01:56:47.759Z,11.33
2018-06-30T02:01:50.406Z,10.67
2018-06-30T02:06:53.061Z,14.73
2018-06-30T02:11:55.682Z,11.47
2018-06-30T02:16:58.279Z,10.53
2018-06-30T02:22:00.855Z,10.73
2018-06-30T02:27:03.463Z,11.27
2018-06-30T02:32:06.142Z,11.07
2018-06-30T02:37:08.801Z,13.93
2018-06-30T02:42:11.399Z,12.77
2018-06-30T02:47:14.027Z,13.13
2018-06-30T02:52:16.715Z,13.80
2018-06-30T02:57:19.439Z,13.73
2018-06-30T03:02:22.056Z,15.67
2018-06-30T03:07:24.704Z,17.97
2018-06-30T03:12:27.307Z,13.90
2018-06-30T03:17:29.939Z,15.83
2018-06-30T03:22:32.579Z,11.20
2018-06-30T03:27:35.170Z,13.50
2018-06-30T03:32:37.766Z,17.00
2018-06-30T03:37:40.451Z,13.93
2018-06-30T03:42:43.067Z,12.60
2018-06-30T03:47:45.675Z,11.50
2018-06-30T03:52:48.284Z,12.33
2018-06-30T03:57:51.195Z,11.87
2018-06-30T04:02:53.883Z,9.57
2018-06-30T04:07:56.491Z,10.00
2018-06-30T04:12:59.081Z,10.10
2018-06-30T04:18:01.698Z,13.93
2018-06-30T04:23:04.261Z,10.40
2018-06-30T04:28:06.859Z,9.50
2018-06-30T04:33:09.575Z,13.37
2018-06-30T04:38:12.177Z,16.83
2018-06-30T04:43:14.803Z,11.03
2018-06-30T04:48:17.392Z,19.07
2018-06-30T04:53:19.994Z,52.57
2018-06-30T04:58:22.636Z,88.03
2018-06-30T05:03:25.358Z,67.77
2018-06-30T05:08:28.007Z,43.80
2018-06-30T05:13:30.627Z,23.13
2018-06-30T05:18:33.252Z,20.77
2018-06-30T05:23:36.115Z,22.80
2018-06-30T05:28:38.710Z,24.57
2018-06-30T05:33:41.420Z,23.03
2018-06-30T05:38:44.006Z,18.60
2018-06-30T05:43:46.651Z,19.00
2018-06-30T05:48:49.265Z,16.03
2018-06-30T05:53:51.908Z,17.87
2018-06-30T05:58:54.610Z,18.03
2018-06-30T06:03:57.211Z,17.63
2018-06-30T06:08:59.867Z,16.63
2018-06-30T06:14:02.715Z,16.30
2018-06-30T06:19:06.287Z,14.90
2018-06-30T06:24:08.927Z,15.63
2018-06-30T06:29:11.549Z,15.63
2018-06-30T06:34:14.283Z,16.63
2018-06-30T06:39:17.006Z,15.53
2018-06-30T06:44:19.637Z,16.03
2018-06-30T06:49:22.330Z,13.80
2018-06-30T06:54:24.941Z,11.63
2018-06-30T06:59:27.579Z,10.90
2018-06-30T07:04:30.198Z,11.60
2018-06-30T07:09:32.786Z,17.53
2018-06-30T07:14:35.383Z,13.60
2018-06-30T07:19:38.099Z,14.30
2018-06-30T07:24:40.742Z,10.23
2018-06-30T07:29:43.466Z,11.65
2018-06-30T07:34:46.082Z,10.20
2018-06-30T07:39:48.736Z,10.23
2018-06-30T07:44:51.388Z,10.23
2018-06-30T07:49:54.039Z,11.27
2018-06-30T07:54:56.659Z,10.53
2018-06-30T07:59:59.356Z,11.30
2018-06-30T08:05:02.008Z,10.97
2018-06-30T08:10:05.119Z,11.33
2018-06-30T08:15:07.788Z,12.87
2018-06-30T08:20:10.427Z,11.20
2018-06-30T08:25:13.097Z,12.47
2018-06-30T08:30:15.775Z,12.37
2018-06-30T08:35:18.567Z,11.67
2018-06-30T08:40:21.195Z,11.93
2018-06-30T08:45:24.087Z,13.30
2018-06-30T08:50:26.781Z,13.60
2018-06-30T08:55:29.510Z,16.10
2018-06-30T09:00:32.070Z,11.23
2018-06-30T09:05:34.696Z,12.27
2018-06-30T09:10:37.262Z,15.27
2018-06-30T09:15:39.833Z,12.60
2018-06-30T09:20:42.558Z,11.20
2018-06-30T09:25:45.191Z,10.67
2018-06-30T09:30:47.834Z,9.93
2018-06-30T09:35:50.540Z,9.73
2018-06-30T09:40:53.244Z,9.90
2018-06-30T09:45:56.119Z,9.30
2018-06-30T09:50:58.803Z,11.67
2018-06-30T09:56:01.423Z,7.47
2018-06-30T10:01:08.018Z,6.77
2018-06-30T10:06:10.776Z,6.23
2018-06-30T10:11:13.403Z,5.47
2018-06-30T10:16:16.075Z,4.40
2018-06-30T10:21:18.785Z,8.97
2018-06-30T10:26:21.381Z,5.00
2018-06-30T10:31:24.025Z,6.40
2018-06-30T10:36:26.667Z,4.30
2018-06-30T10:41:29.404Z,3.95
2018-06-30T10:46:32.086Z,6.35
2018-06-30T10:51:34.998Z,3.15
2018-06-30T10:56:37.674Z,3.80
2018-06-30T11:01:40.371Z,4.62
2018-06-30T11:06:42.987Z,3.33
2018-06-30T11:11:45.634Z,6.42
2018-06-30T11:16:48.339Z,5.55
2018-06-30T11:21:51.044Z,3.27
2018-06-30T11:26:53.718Z,3.27
2018-06-30T11:31:56.554Z,2.83
2018-06-30T11:36:59.234Z,3.50
2018-06-30T11:42:01.851Z,3.62
2018-06-30T11:47:05.043Z,3.72
2018-06-30T11:52:07.770Z,6.75
2018-06-30T11:57:10.395Z,2.70
2018-06-30T12:02:13.087Z,3.15
2018-06-30T12:07:15.652Z,2.87
2018-06-30T12:12:18.448Z,3.70
2018-06-30T12:17:21.134Z,2.65
2018-06-30T12:22:23.763Z,3.95
2018-06-30T12:27:26.473Z,2.60
2018-06-30T12:32:29.056Z,3.65
2018-06-30T12:37:31.803Z,3.75
2018-06-30T12:42:34.449Z,2.40
2018-06-30T12:47:37.090Z,2.77
2018-06-30T12:52:39.714Z,3.60
2018-06-30T12:57:42.344Z,2.77
2018-06-30T13:02:45.114Z,2.45
2018-06-30T13:07:47.885Z,5.15
2018-06-30T13:12:51.299Z,2.47
2018-06-30T13:17:53.919Z,2.52
2018-06-30T13:22:56.559Z,2.50
2018-06-30T13:27:59.179Z,4.35
2018-06-30T13:33:01.905Z,3.47
2018-06-30T13:38:04.727Z,7.78
2018-06-30T13:43:07.482Z,2.92
2018-06-30T13:48:10.212Z,4.30
2018-06-30T13:53:13.031Z,5.35
2018-06-30T13:58:15.732Z,3.45
2018-06-30T14:03:18.369Z,2.70
2018-06-30T14:08:21.023Z,2.62
2018-06-30T14:13:23.668Z,3.40
2018-06-30T14:18:26.552Z,2.40
2018-06-30T14:23:29.281Z,5.37
2018-06-30T14:28:31.972Z,2.70
2018-06-30T14:33:34.595Z,2.62
2018-06-30T14:38:37.254Z,3.20
2018-06-30T14:43:39.897Z,2.20
2018-06-30T14:48:42.534Z,4.75
2018-06-30T14:53:45.169Z,4.92
2018-06-30T14:58:47.805Z,3.50
2018-06-30T15:03:50.426Z,3.65
2018-06-30T15:08:53.052Z,2.95
2018-06-30T15:13:55.677Z,4.55
2018-06-30T15:18:58.424Z,3.15
2018-06-30T15:24:01.058Z,4.97
2018-06-30T15:29:03.939Z,3.20
2018-06-30T15:34:06.859Z,4.33
2018-06-30T15:39:10.400Z,2.87
2018-06-30T15:44:13.011Z,4.30
2018-06-30T15:49:15.670Z,3.70
2018-06-30T15:54:18.421Z,5.20
2018-06-30T15:59:21.058Z,4.05
2018-06-30T16:04:23.671Z,8.28
2018-06-30T16:09:26.299Z,4.25
2018-06-30T16:14:28.971Z,5.78
2018-06-30T16:19:31.599Z,3.40
2018-06-30T16:24:34.219Z,3.00
2018-06-30T16:29:36.871Z,4.53
2018-06-30T16:34:39.511Z,3.05
2018-06-30T16:39:42.121Z,3.77
2018-06-30T16:44:44.719Z,3.27
2018-06-30T16:49:47.339Z,5.17
2018-06-30T16:54:50.070Z,7.92
2018-06-30T17:00:23.347Z,3.83
2018-06-30T17:05:26.083Z,3.40
2018-06-30T17:10:28.720Z,3.98
2018-06-30T17:15:31.443Z,4.85
2018-06-30T17:20:34.326Z,3.70
2018-06-30T17:25:37.101Z,3.52
2018-06-30T17:30:41.527Z,5.97
2018-06-30T17:35:44.229Z,6.60
2018-06-30T17:40:46.958Z,6.77
2018-06-30T17:45:49.682Z,5.43
2018-06-30T17:50:52.320Z,4.53
2018-06-30T17:55:55.103Z,4.97
2018-06-30T18:00:57.747Z,4.97
2018-06-30T18:06:00.458Z,5.23
2018-06-30T18:11:03.205Z,5.47
2018-06-30T18:16:06.124Z,7.03
2018-06-30T18:21:08.903Z,8.63
2018-06-30T18:26:11.717Z,6.63
2018-06-30T18:31:14.346Z,6.43
2018-06-30T18:36:17.023Z,4.97
2018-06-30T18:41:20.232Z,4.97
2018-06-30T18:46:22.992Z,4.53
2018-06-30T18:51:25.990Z,4.67
2018-06-30T18:56:28.637Z,4.20
2018-06-30T19:01:31.183Z,7.03
2018-06-30T19:06:34.243Z,6.37
2018-06-30T19:11:37.803Z,6.00
2018-06-30T19:16:40.473Z,4.93
2018-06-30T19:21:44.109Z,4.70
2018-06-30T19:26:46.813Z,7.07
2018-06-30T19:31:49.551Z,6.70
2018-06-30T19:36:52.187Z,4.63
2018-06-30T19:41:54.865Z,4.43
2018-06-30T19:46:57.499Z,10.07
2018-06-30T19:52:00.196Z,4.90
2018-06-30T19:57:02.860Z,7.57
2018-06-30T20:02:05.860Z,6.57
2018-06-30T20:07:08.533Z,6.63
2018-06-30T20:12:11.127Z,9.43
2018-06-30T20:17:13.802Z,8.27
2018-06-30T20:22:16.490Z,10.20
2018-06-30T20:27:19.116Z,6.53
2018-06-30T20:32:21.794Z,8.13
2018-06-30T20:37:24.716Z,7.90
2018-06-30T20:42:27.318Z,5.87
2018-06-30T20:47:29.955Z,5.73
2018-06-30T20:52:32.615Z,9.10
2018-06-30T20:57:35.298Z,6.10
2018-06-30T21:02:37.998Z,9.03
2018-06-30T21:07:40.783Z,6.97
2018-06-30T23:16:29.663Z,2.20
2018-06-30T23:21:32.290Z,4.70
2018-06-30T23:26:34.930Z,2.10
2018-06-30T23:31:37.563Z,3.40
2018-06-30T23:36:40.245Z,2.33
2018-06-30T23:41:42.883Z,1.27
2018-06-30T23:46:45.786Z,3.63
2018-06-30T23:51:48.422Z,4.67
2018-06-30T23:56:51.026Z,2.37
